createdAt,value
2018-04-28T00:01:52.745Z,7.43
2018-04-28T00:04:26.352Z,7.50
2018-04-28T00:06:59.941Z,7.03
2018-04-28T00:09:33.463Z,7.55
2018-04-28T00:12:07.049Z,6.87
2018-04-28T00:14:40.646Z,7.90
2018-04-28T00:17:16.772Z,6.90
2018-04-28T00:20:00.482Z,6.85
2018-04-28T00:22:35.157Z,8.20
2018-04-28T00:25:18.510Z,7.55
2018-04-28T00:27:53.014Z,7.40
2018-04-28T00:30:43.213Z,7.53
2018-04-28T00:33:21.654Z,7.30
2018-04-28T00:36:04.374Z,7.05
2018-04-28T00:38:39.402Z,6.50
2018-04-28T00:41:13.104Z,7.45
2018-04-28T00:43:46.818Z,6.50
2018-04-28T00:46:30.269Z,6.45
2018-04-28T00:49:04.011Z,7.60
2018-04-28T00:51:37.527Z,7.78
2018-04-28T00:54:15.612Z,9.20
2018-04-28T00:57:03.027Z,8.40
2018-04-28T00:59:38.627Z,8.35
2018-04-28T01:02:12.318Z,8.25
2018-04-28T01:04:45.929Z,8.25
2018-04-28T01:07:21.092Z,9.10
2018-04-28T01:10:00.488Z,7.80
2018-04-28T01:12:38.026Z,7.85
2018-04-28T01:15:13.705Z,8.68
2018-04-28T01:18:01.052Z,8.48
2018-04-28T01:20:58.823Z,8.35
2018-04-28T01:23:38.163Z,8.07
2018-04-28T01:26:18.465Z,8.13
2018-04-28T01:42:32.586Z,8.98
2018-04-28T01:45:07.130Z,7.22
2018-04-28T02:01:24.262Z,7.12
2018-04-28T02:03:58.935Z,7.70
2018-04-28T02:06:39.157Z,9.23
2018-04-28T02:09:21.489Z,8.50
2018-04-28T02:12:01.756Z,8.20
2018-04-28T02:14:36.889Z,8.32
2018-04-28T02:17:13.357Z,8.27
2018-04-28T02:19:50.620Z,8.90
2018-04-28T02:22:33.979Z,8.30
2018-04-28T02:25:13.474Z,7.55
2018-04-28T02:27:51.031Z,7.15
2018-04-28T02:30:24.565Z,6.62
2018-04-28T02:33:00.810Z,6.47
2018-04-28T02:35:37.252Z,7.43
2018-04-28T02:51:42.995Z,7.37
2018-04-28T02:54:34.100Z,6.57
2018-04-28T02:57:08.629Z,7.50
2018-04-28T02:59:54.153Z,7.30
2018-04-28T03:02:33.931Z,7.93
2018-04-28T03:05:19.076Z,7.70
2018-04-28T03:08:03.447Z,7.20
2018-04-28T03:10:44.049Z,7.37
2018-04-28T03:13:26.400Z,8.27
2018-04-28T03:16:00.143Z,7.15
2018-04-28T03:18:44.570Z,7.07
2018-04-28T03:21:18.230Z,7.37
2018-04-28T03:23:52.761Z,6.90
2018-04-28T03:26:27.908Z,7.90
2018-04-28T03:29:05.834Z,6.87
2018-04-28T03:31:39.569Z,7.28
2018-04-28T03:34:16.045Z,6.75
2018-04-28T03:36:51.388Z,7.65
2018-04-28T03:39:25.885Z,6.30
2018-04-28T03:42:00.374Z,7.15
2018-04-28T03:44:44.596Z,5.75
2018-04-28T04:01:07.657Z,6.37
2018-04-28T04:03:53.363Z,8.10
2018-04-28T04:06:39.584Z,7.97
2018-04-28T04:09:15.100Z,7.03
2018-04-28T04:11:54.569Z,6.70
2018-04-28T04:14:29.900Z,7.93
2018-04-28T04:31:02.854Z,6.53
2018-04-28T04:47:11.647Z,6.90
2018-04-28T05:03:30.956Z,8.88
2018-04-28T05:06:18.368Z,8.70
2018-04-28T05:09:07.718Z,7.25
2018-04-28T05:11:52.195Z,7.90
2018-04-28T05:28:12.844Z,7.78
2018-04-28T05:31:04.286Z,7.28
2018-04-28T05:47:12.368Z,6.65
2018-04-28T05:49:46.071Z,5.70
2018-04-28T05:52:40.633Z,5.97
2018-04-28T06:09:13.660Z,5.90
2018-04-28T06:25:30.436Z,6.18
2018-04-28T06:28:04.021Z,4.80
2018-04-28T06:30:38.349Z,5.05
2018-04-28T06:33:12.065Z,5.30
2018-04-28T06:35:45.707Z,4.47
2018-04-28T06:38:19.191Z,4.62
2018-04-28T06:40:52.749Z,5.28
2018-04-28T06:43:26.344Z,5.10
2018-04-28T06:45:59.870Z,4.60
2018-04-28T06:48:33.431Z,4.00
2018-04-28T06:51:07.004Z,3.67
2018-04-28T06:53:40.574Z,3.70
2018-04-28T06:56:14.114Z,3.10
2018-04-28T06:58:47.657Z,3.25
2018-04-28T07:01:21.234Z,3.58
2018-04-28T07:03:54.717Z,3.20
2018-04-28T07:06:28.332Z,3.10
2018-04-28T07:09:01.900Z,3.42
2018-04-28T07:11:35.500Z,3.87
2018-04-28T07:14:09.218Z,2.42
2018-04-28T07:16:42.870Z,3.17
2018-04-28T07:19:24.175Z,2.40
2018-04-28T07:21:57.739Z,2.87
2018-04-28T07:24:31.431Z,2.78
2018-04-28T07:27:05.027Z,2.60
2018-04-28T07:29:38.595Z,2.10
2018-04-28T07:32:12.339Z,2.30
2018-04-28T07:34:45.895Z,2.45
2018-04-28T07:37:19.466Z,2.35
2018-04-28T07:39:53.004Z,2.20
2018-04-28T07:42:26.640Z,2.40
2018-04-28T07:45:00.215Z,2.80
2018-04-28T07:47:33.793Z,2.95
2018-04-28T07:50:07.532Z,3.25
2018-04-28T07:52:41.107Z,3.35
2018-04-28T07:55:14.743Z,3.45
2018-04-28T07:57:49.244Z,3.60
2018-04-28T08:00:23.071Z,2.78
2018-04-28T08:02:56.607Z,3.20
2018-04-28T08:05:30.136Z,2.85
2018-04-28T08:08:03.735Z,2.67
2018-04-28T08:10:37.335Z,2.70
2018-04-28T08:13:10.962Z,2.80
2018-04-28T08:15:44.489Z,2.60
2018-04-28T08:18:18.794Z,2.65
2018-04-28T08:20:52.468Z,2.78
2018-04-28T08:23:26.109Z,2.72
2018-04-28T08:25:59.659Z,3.40
2018-04-28T08:28:33.212Z,3.35
2018-04-28T08:31:06.776Z,3.55
2018-04-28T08:33:40.418Z,3.50
2018-04-28T08:36:13.961Z,3.42
2018-04-28T08:38:47.575Z,3.47
2018-04-28T08:41:21.131Z,3.28
2018-04-28T08:43:54.712Z,4.00
2018-04-28T08:46:28.800Z,3.20
2018-04-28T08:49:02.328Z,2.67
2018-04-28T08:51:35.854Z,2.58
2018-04-28T08:54:09.460Z,2.70
2018-04-28T08:56:43.225Z,3.25
2018-04-28T08:59:16.784Z,2.22
2018-04-28T09:01:50.378Z,2.10
2018-04-28T09:04:24.717Z,2.42
2018-04-28T09:06:59.331Z,2.37
2018-04-28T09:09:33.028Z,2.10
2018-04-28T09:12:07.366Z,2.25
2018-04-28T09:14:41.090Z,2.20
2018-04-28T09:17:14.685Z,2.33
2018-04-28T09:19:48.191Z,2.25
2018-04-28T09:22:21.737Z,2.42
2018-04-28T09:24:55.288Z,2.10
2018-04-28T09:27:28.851Z,2.28
2018-04-28T09:30:02.395Z,2.20
2018-04-28T09:32:36.079Z,3.40
2018-04-28T09:35:09.668Z,2.45
2018-04-28T09:37:43.246Z,2.10
2018-04-28T09:40:16.965Z,2.00
2018-04-28T09:42:50.556Z,2.15
2018-04-28T09:45:25.019Z,2.33
2018-04-28T09:47:58.710Z,2.42
2018-04-28T09:50:32.296Z,2.40
2018-04-28T09:53:05.907Z,2.33
2018-04-28T09:55:39.462Z,2.22
2018-04-28T09:58:13.032Z,2.95
2018-04-28T10:00:55.255Z,2.97
2018-04-28T10:03:30.462Z,2.37
2018-04-28T10:06:04.161Z,2.25
2018-04-28T10:08:37.847Z,2.75
2018-04-28T10:11:11.335Z,2.85
2018-04-28T10:13:44.904Z,2.17
2018-04-28T10:16:19.230Z,2.47
2018-04-28T10:18:52.960Z,2.30
2018-04-28T10:21:26.550Z,3.00
2018-04-28T10:24:00.203Z,2.28
2018-04-28T10:26:33.887Z,2.78
2018-04-28T10:29:07.469Z,2.30
2018-04-28T10:31:41.056Z,3.00
2018-04-28T10:34:14.685Z,2.30
2018-04-28T10:36:48.273Z,3.33
2018-04-28T10:39:22.289Z,2.70
2018-04-28T10:41:55.974Z,3.00
2018-04-28T10:44:29.578Z,3.00
2018-04-28T10:47:03.959Z,2.50
2018-04-28T10:49:38.489Z,2.60
2018-04-28T10:52:12.439Z,2.67
2018-04-28T10:54:47.050Z,2.58
2018-04-28T10:57:20.703Z,2.78
2018-04-28T10:59:54.231Z,2.55
2018-04-28T11:02:28.582Z,4.57
2018-04-28T11:05:02.264Z,3.12
2018-04-28T11:07:35.804Z,2.72
2018-04-28T11:10:09.309Z,2.65
2018-04-28T11:12:42.884Z,3.22
2018-04-28T11:15:16.497Z,2.95
2018-04-28T11:17:50.063Z,2.80
2018-04-28T11:20:23.595Z,2.90
2018-04-28T11:22:57.173Z,2.60
2018-04-28T11:25:30.828Z,2.70
2018-04-28T11:28:05.102Z,2.90
2018-04-28T11:30:38.681Z,3.42
2018-04-28T11:33:12.224Z,3.25
2018-04-28T11:35:45.934Z,3.10
2018-04-28T11:38:19.564Z,3.37
2018-04-28T11:40:53.811Z,2.90
2018-04-28T11:43:27.391Z,3.60
2018-04-28T11:46:01.003Z,3.10
2018-04-28T11:48:34.601Z,2.85
2018-04-28T11:51:08.197Z,2.78
2018-04-28T11:53:41.783Z,2.83
2018-04-28T11:56:15.304Z,2.80
2018-04-28T11:58:48.931Z,3.12
2018-04-28T12:01:22.512Z,3.50
2018-04-28T12:03:56.097Z,2.62
2018-04-28T12:06:29.583Z,3.10
2018-04-28T12:09:03.113Z,3.15
2018-04-28T12:11:36.654Z,2.67
2018-04-28T12:14:10.191Z,3.05
2018-04-28T12:16:43.698Z,2.80
2018-04-28T12:19:17.315Z,3.90
2018-04-28T12:21:50.891Z,3.30
2018-04-28T12:24:24.404Z,3.20
2018-04-28T12:26:57.986Z,3.83
2018-04-28T12:29:31.591Z,3.53
2018-04-28T12:32:05.140Z,3.53
2018-04-28T12:34:38.730Z,3.70
2018-04-28T12:37:12.380Z,4.00
2018-04-28T12:39:45.901Z,3.35
2018-04-28T12:42:20.275Z,3.60
2018-04-28T12:44:53.825Z,3.62
2018-04-28T12:47:27.390Z,4.15
2018-04-28T12:50:01.066Z,4.37
2018-04-28T12:52:34.624Z,3.90
2018-04-28T12:55:08.196Z,3.42
2018-04-28T12:57:41.720Z,4.10
2018-04-28T13:00:16.051Z,3.70
2018-04-28T13:02:49.633Z,3.37
2018-04-28T13:05:23.948Z,4.40
2018-04-28T13:07:58.457Z,3.50
2018-04-28T13:10:32.017Z,3.92
2018-04-28T13:13:06.300Z,3.58
2018-04-28T13:15:39.889Z,4.18
2018-04-28T13:18:13.501Z,3.33
2018-04-28T13:20:47.129Z,3.42
2018-04-28T13:23:20.685Z,3.28
2018-04-28T13:25:54.395Z,3.00
2018-04-28T13:28:28.205Z,3.55
2018-04-28T13:31:02.713Z,3.70
2018-04-28T13:33:36.428Z,3.10
2018-04-28T13:36:10.867Z,3.30
2018-04-28T13:38:44.382Z,3.25
2018-04-28T13:41:17.956Z,3.00
2018-04-28T13:43:51.508Z,3.75
2018-04-28T13:46:25.167Z,3.67
2018-04-28T13:48:58.760Z,2.85
2018-04-28T13:51:32.364Z,3.20
2018-04-28T13:54:06.045Z,3.08
2018-04-28T13:56:39.664Z,3.30
2018-04-28T13:59:13.257Z,3.17
2018-04-28T14:01:46.881Z,2.85
2018-04-28T14:04:20.607Z,3.22
2018-04-28T14:06:54.202Z,2.90
2018-04-28T14:09:28.694Z,3.15
2018-04-28T14:12:02.412Z,3.20
2018-04-28T14:14:36.023Z,3.65
2018-04-28T14:17:09.684Z,3.10
2018-04-28T14:19:43.304Z,2.92
2018-04-28T14:22:17.718Z,2.92
2018-04-28T14:24:51.242Z,3.17
2018-04-28T14:27:24.828Z,3.00
2018-04-28T14:29:58.409Z,3.50
2018-04-28T14:32:32.023Z,2.95
2018-04-28T14:35:06.528Z,2.75
2018-04-28T14:37:40.225Z,3.03
2018-04-28T14:40:13.820Z,3.45
2018-04-28T14:42:47.344Z,2.40
2018-04-28T14:45:20.852Z,2.70
2018-04-28T14:47:54.527Z,2.85
2018-04-28T14:50:28.864Z,2.97
2018-04-28T14:53:02.356Z,3.20
2018-04-28T14:55:35.984Z,2.83
2018-04-28T14:58:09.516Z,2.95
2018-04-28T15:00:43.783Z,3.53
2018-04-28T15:03:17.456Z,2.72
2018-04-28T15:05:51.886Z,3.15
2018-04-28T15:08:26.204Z,3.15
2018-04-28T15:10:59.851Z,2.95
2018-04-28T15:13:33.425Z,3.15
2018-04-28T15:16:07.047Z,2.80
2018-04-28T15:18:40.681Z,2.95
2018-04-28T15:21:14.294Z,3.25
2018-04-28T15:23:47.928Z,2.75
2018-04-28T15:26:21.549Z,2.90
2018-04-28T15:28:55.244Z,3.30
2018-04-28T15:31:28.823Z,4.03
2018-04-28T15:34:02.552Z,3.42
2018-04-28T15:36:36.847Z,3.25
2018-04-28T15:39:10.537Z,2.95
2018-04-28T15:41:44.144Z,3.17
2018-04-28T15:44:17.761Z,2.87
2018-04-28T15:46:52.269Z,2.83
2018-04-28T15:49:25.931Z,2.90
2018-04-28T15:51:59.501Z,2.40
2018-04-28T15:54:33.066Z,2.72
2018-04-28T15:57:06.820Z,3.47
2018-04-28T15:59:40.484Z,3.08
2018-04-28T16:02:14.127Z,3.05
2018-04-28T16:04:47.767Z,3.12
2018-04-28T16:07:21.501Z,3.53
2018-04-28T16:09:55.155Z,3.17
2018-04-28T16:12:28.666Z,3.17
2018-04-28T16:15:02.493Z,4.22
2018-04-28T16:17:36.053Z,5.28
2018-04-28T16:20:09.625Z,3.03
2018-04-28T16:22:43.260Z,3.72
2018-04-28T16:25:16.897Z,3.33
2018-04-28T16:27:50.413Z,3.25
2018-04-28T16:30:24.010Z,3.65
2018-04-28T16:32:57.578Z,3.40
2018-04-28T16:35:32.106Z,3.35
2018-04-28T16:38:05.685Z,3.55
2018-04-28T16:40:39.237Z,3.30
2018-04-28T16:43:12.928Z,2.92
2018-04-28T16:45:46.620Z,3.30
2018-04-28T16:48:20.287Z,3.08
2018-04-28T16:50:53.871Z,3.57
2018-04-28T16:53:27.411Z,2.97
2018-04-28T16:56:00.947Z,2.73
2018-04-28T16:58:34.525Z,3.15
2018-04-28T17:01:08.030Z,3.40
2018-04-28T17:03:41.666Z,2.95
2018-04-28T17:06:15.401Z,3.25
2018-04-28T17:08:49.846Z,3.70
2018-04-28T17:11:23.342Z,3.37
2018-04-28T17:13:56.904Z,3.27
2018-04-28T17:16:30.643Z,3.83
2018-04-28T17:19:05.061Z,3.45
2018-04-28T17:21:39.381Z,3.87
2018-04-28T17:24:12.973Z,3.55
2018-04-28T17:26:46.685Z,4.32
2018-04-28T17:29:20.362Z,3.30
2018-04-28T17:31:54.882Z,3.78
2018-04-28T17:34:28.325Z,3.10
2018-04-28T17:37:01.952Z,3.35
2018-04-28T17:39:35.632Z,3.90
2018-04-28T17:42:09.353Z,3.70
2018-04-28T17:44:43.047Z,3.28
2018-04-28T17:47:16.762Z,3.50
2018-04-28T17:49:50.347Z,3.87
2018-04-28T17:52:23.926Z,3.85
2018-04-28T17:54:57.428Z,3.78
2018-04-28T17:57:31.101Z,3.97
2018-04-28T18:00:05.433Z,3.95
2018-04-28T18:02:39.032Z,4.75
2018-04-28T18:05:13.255Z,4.43
2018-04-28T18:07:46.878Z,4.18
2018-04-28T18:10:20.557Z,3.45
2018-04-28T18:12:54.124Z,4.25
2018-04-28T18:15:27.739Z,4.57
2018-04-28T18:18:01.303Z,4.40
2018-04-28T18:20:34.889Z,3.75
2018-04-28T18:23:08.460Z,4.40
2018-04-28T18:25:42.785Z,5.03
2018-04-28T18:28:16.389Z,5.55
2018-04-28T18:30:49.997Z,4.60
2018-04-28T18:33:23.536Z,4.57
2018-04-28T18:35:57.076Z,3.90
2018-04-28T18:38:30.645Z,4.05
2018-04-28T18:41:04.233Z,3.60
2018-04-28T18:43:38.601Z,4.10
2018-04-28T18:46:12.419Z,4.32
2018-04-28T18:48:46.605Z,4.40
2018-04-28T18:51:20.293Z,4.37
2018-04-28T18:53:54.643Z,4.80
2018-04-28T18:56:28.357Z,4.35
2018-04-28T18:59:01.968Z,4.05
2018-04-28T19:01:35.476Z,4.50
2018-04-28T19:04:09.016Z,4.90
2018-04-28T19:06:42.549Z,4.78
2018-04-28T19:09:16.953Z,5.10
2018-04-28T19:11:50.693Z,5.22
2018-04-28T19:14:24.455Z,4.70
2018-04-28T19:16:59.011Z,4.80
2018-04-28T19:19:32.529Z,4.90
2018-04-28T19:22:06.112Z,5.40
2018-04-28T19:24:39.656Z,5.03
2018-04-28T19:27:13.233Z,5.35
2018-04-28T19:29:46.806Z,5.97
2018-04-28T19:32:20.367Z,5.65
2018-04-28T19:34:53.977Z,6.80
2018-04-28T19:37:27.601Z,6.85
2018-04-28T19:40:01.109Z,6.40
2018-04-28T19:42:34.687Z,7.07
2018-04-28T19:45:09.007Z,6.82
2018-04-28T19:47:43.434Z,5.78
2018-04-28T19:50:17.102Z,6.00
2018-04-28T19:52:50.756Z,6.40
2018-04-28T19:55:24.317Z,6.25
2018-04-28T19:57:57.916Z,6.55
2018-04-28T20:00:31.522Z,6.10
2018-04-28T20:03:05.157Z,5.93
2018-04-28T20:05:38.742Z,6.70
2018-04-28T20:08:12.348Z,7.80
2018-04-28T20:10:46.049Z,8.60
2018-04-28T20:13:19.740Z,8.20
2018-04-28T20:15:53.282Z,7.55
2018-04-28T20:18:26.815Z,8.35
2018-04-28T20:21:01.147Z,7.72
2018-04-28T20:23:47.633Z,7.37
2018-04-28T20:26:21.147Z,7.68
2018-04-28T20:28:54.733Z,7.37
2018-04-28T20:31:28.356Z,7.62
2018-04-28T20:34:01.903Z,8.82
2018-04-28T20:36:35.433Z,7.37
2018-04-28T20:39:08.972Z,7.87
2018-04-28T20:41:42.545Z,7.85
2018-04-28T20:44:16.143Z,6.82
2018-04-28T20:46:49.685Z,7.97
2018-04-28T20:49:24.076Z,8.13
2018-04-28T20:51:57.736Z,7.60
2018-04-28T20:54:31.374Z,7.50
2018-04-28T20:57:05.691Z,7.75
2018-04-28T20:59:39.437Z,8.48
2018-04-28T21:02:13.005Z,8.00
2018-04-28T21:04:46.581Z,7.35
2018-04-28T21:07:20.270Z,7.57
2018-04-28T21:09:54.098Z,11.10
2018-04-28T21:12:29.063Z,13.57
2018-04-28T21:15:02.574Z,9.05
2018-04-28T21:17:36.857Z,8.18
2018-04-28T21:20:11.371Z,8.50
2018-04-28T21:22:44.967Z,8.38
2018-04-28T21:25:18.544Z,9.27
2018-04-28T21:27:52.279Z,9.20
2018-04-28T21:30:25.886Z,12.23
2018-04-28T21:32:59.494Z,8.90
2018-04-28T21:35:33.799Z,8.90
2018-04-28T21:38:08.315Z,8.05
2018-04-28T21:40:42.169Z,8.07
2018-04-28T21:43:15.656Z,8.32
2018-04-28T21:45:49.939Z,8.55
2018-04-28T21:48:23.517Z,8.30
2018-04-28T21:50:57.144Z,8.70
2018-04-28T21:53:30.737Z,8.23
2018-04-28T21:56:05.089Z,8.50
2018-04-28T21:58:38.798Z,9.73
2018-04-28T22:01:12.361Z,10.57
2018-04-28T22:03:45.911Z,10.25
2018-04-28T22:06:19.561Z,10.30
2018-04-28T22:08:53.165Z,9.45
2018-04-28T22:11:26.759Z,11.20
2018-04-28T22:14:00.364Z,9.70
2018-04-28T22:16:33.947Z,8.73
2018-04-28T22:19:07.495Z,9.15
2018-04-28T22:21:41.071Z,8.68
2018-04-28T22:24:14.660Z,8.25
2018-04-28T22:26:48.199Z,8.65
2018-04-28T22:29:21.862Z,9.45
2018-04-28T22:31:55.469Z,8.73
2018-04-28T22:34:29.005Z,8.80
2018-04-28T22:37:02.683Z,9.52
2018-04-28T22:39:36.266Z,9.27
2018-04-28T22:42:09.856Z,7.60
2018-04-28T22:44:43.608Z,8.60
2018-04-28T22:47:17.158Z,9.18
2018-04-28T22:49:50.758Z,9.57
2018-04-28T22:52:24.329Z,9.52
2018-04-28T22:54:57.840Z,8.07
2018-04-28T22:57:31.402Z,8.85
2018-04-28T23:00:04.977Z,9.23
2018-04-28T23:02:38.589Z,9.27
2018-04-28T23:05:12.179Z,8.23
2018-04-28T23:07:45.781Z,9.15
2018-04-28T23:10:19.371Z,9.45
2018-04-28T23:12:52.899Z,9.00
2018-04-28T23:15:26.615Z,10.93
2018-04-28T23:18:00.320Z,10.13
2018-04-28T23:20:33.993Z,9.80
2018-04-28T23:23:07.574Z,11.35
2018-04-28T23:25:41.092Z,10.23
2018-04-28T23:28:14.707Z,10.93
2018-04-28T23:30:48.998Z,11.25
2018-04-28T23:33:22.743Z,13.75
2018-04-28T23:35:56.293Z,11.55
2018-04-28T23:38:29.872Z,11.45
2018-04-28T23:41:03.507Z,9.85
2018-04-28T23:43:37.042Z,10.35
2018-04-28T23:46:10.604Z,10.05
2018-04-28T23:48:44.192Z,9.00
2018-04-28T23:51:17.829Z,8.23
2018-04-28T23:53:51.400Z,8.75
2018-04-28T23:56:25.121Z,9.13
2018-04-28T23:58:58.637Z,8.95
